EGNR

Hawarden Airport

Hawarden, United Kingdom
METAR EGNR 251450Z 21012KT CAVOK 17/05 Q1034
Observed Flight Rules
Sep-25 @ 14:50 UTC (36 minutes ago) Visual Flight Rules
Wind Visibility Clouds
210° at 12 knots 10,000+ meters
  • Clear skies
Temperatures Readings
Current 17°C / 63°F
Dewpoint 5°C / 41°F
Humidity 45%
Altimeter 30.53" Hg
Pressure 1034 hPa
Elevation 10
METAR EGNR 251450Z 21012KT CAVOK 17/05 Q1034
Observed Flight Rules
Sep-25 @ 14:50 UTC
(36 minutes ago)
VFR
Wind Visibility
210° at 12 knots 10,000+ meters
Clouds
  • Clear skies
Temperature Dewpoint
17°C / 63°F 5°C / 41°F
Humidity Altimeter Pressure
45% 30.53" Hg 1034 hPa